Alcains, Portugal
Current Conditions -  °F | °C
As of 8:00 AM on Thursday 23 Oct 2014 (Local Time) from LPMR Reporting Station
Clear Clear  
Wind Chill: 59°   Ceiling: Unl
Heat Index: 59°   Visibility: 6mi
Dew Point: 57°   Wind: 3mph
Humidity: 94%   Direction: 160°SSE
Pressure: 30.21"   Gusts: NA
Location:  39.92°N, 7.46°W
Report Text: LPMR 230800Z 16003KT 9000 NSC 15/14 Q1023
Loading
Personal Weather Stations






























Interactive Weather Map New forecast layout! Learn more

10-Day Weather Forecast

Advertisements
Track Severe Weather on mobile